createdAt,value
2023-03-23T15:58:53.577Z,56.69
2023-03-23T16:01:29.322Z,57.92
2023-03-23T16:04:05.538Z,61.52
2023-03-23T16:06:37.402Z,69.90
2023-03-23T16:09:07.975Z,67.46
2023-03-23T16:11:36.144Z,61.81
2023-03-23T16:14:03.884Z,56.57
2023-03-23T16:16:40.478Z,54.80
2023-03-23T16:19:12.589Z,55.94
2023-03-23T16:21:41.794Z,57.73
2023-03-23T16:24:12.007Z,59.56
2023-03-23T16:26:41.045Z,68.94
2023-03-23T16:29:28.289Z,69.62
2023-03-23T16:32:03.699Z,62.20
2023-03-23T16:34:33.913Z,56.42
2023-03-23T16:37:02.345Z,55.88
2023-03-23T16:39:30.463Z,57.56
2023-03-23T16:41:58.505Z,59.03
2023-03-23T16:44:26.243Z,60.00
2023-03-23T16:46:54.192Z,64.68
2023-03-23T16:49:22.572Z,69.39
2023-03-23T16:51:50.823Z,63.93
2023-03-23T16:54:18.607Z,55.72
2023-03-23T16:56:47.063Z,53.86
2023-03-23T16:59:15.461Z,55.46
2023-03-23T17:01:44.837Z,56.99
2023-03-23T17:04:15.747Z,57.58
2023-03-23T17:06:44.414Z,59.97
2023-03-23T17:09:12.579Z,67.21
2023-03-23T17:11:40.596Z,67.96
2023-03-23T17:14:10.128Z,62.12
2023-03-23T17:16:39.156Z,54.48
2023-03-23T17:19:08.902Z,54.22
2023-03-23T17:21:40.538Z,56.16
2023-03-23T17:24:09.875Z,56.19
2023-03-23T17:26:38.193Z,59.36
2023-03-23T17:29:06.965Z,67.63
2023-03-23T17:31:35.662Z,67.19
2023-03-23T17:34:04.967Z,60.52
2023-03-23T17:36:33.091Z,53.88
2023-03-23T17:39:01.715Z,53.60
2023-03-23T17:41:29.801Z,56.23
2023-03-23T17:43:59.703Z,58.38
2023-03-23T17:46:28.655Z,60.40
2023-03-23T17:48:57.118Z,63.88
2023-03-23T17:51:26.596Z,71.01
2023-03-23T17:53:54.564Z,67.39
2023-03-23T17:56:22.727Z,59.85
2023-03-23T17:58:50.763Z,53.07
2023-03-23T18:01:18.815Z,53.38
2023-03-23T18:03:46.671Z,56.67
2023-03-23T18:06:15.223Z,58.45
2023-03-23T18:08:43.769Z,59.21
2023-03-23T18:11:12.495Z,59.17
2023-03-23T18:13:40.722Z,61.13
2023-03-23T18:16:11.135Z,68.51
2023-03-23T18:18:39.232Z,68.91
2023-03-23T18:21:10.871Z,62.69
2023-03-23T18:23:49.073Z,55.38
2023-03-23T18:26:25.178Z,53.49
2023-03-23T18:28:55.890Z,56.30
2023-03-23T18:31:24.524Z,59.18
2023-03-23T18:33:54.989Z,67.44
2023-03-23T18:36:27.389Z,66.71
2023-03-23T18:38:58.434Z,61.78
2023-03-23T18:41:26.774Z,54.42
2023-03-23T18:43:56.364Z,54.53
2023-03-23T18:46:27.003Z,56.89
2023-03-23T18:48:55.440Z,58.56
2023-03-23T18:51:26.384Z,60.64
2023-03-23T18:53:55.017Z,62.91
2023-03-23T18:56:23.487Z,73.10
2023-03-23T18:58:53.497Z,69.09
2023-03-23T19:01:23.159Z,62.44
2023-03-23T19:03:51.789Z,54.52
2023-03-23T19:06:25.589Z,53.95
2023-03-23T19:08:54.990Z,56.41
2023-03-23T19:11:26.026Z,58.97
2023-03-23T19:14:03.006Z,59.08
2023-03-23T19:16:35.970Z,61.16
2023-03-23T19:19:08.584Z,69.69
2023-03-23T19:21:40.301Z,71.04
2023-03-23T19:24:11.273Z,62.83
2023-03-23T19:26:44.745Z,57.78
2023-03-23T19:29:26.842Z,54.34
2023-03-23T19:31:57.390Z,56.91
2023-03-23T19:34:28.235Z,58.79
2023-03-23T19:37:04.090Z,61.15
2023-03-23T19:39:38.545Z,70.79
2023-03-23T19:42:09.789Z,67.77
2023-03-23T19:44:37.616Z,65.01
2023-03-23T19:47:05.812Z,60.61
2023-03-23T19:49:34.399Z,55.63
2023-03-23T19:52:06.455Z,54.18
2023-03-23T19:54:37.851Z,55.98
2023-03-23T19:57:06.253Z,60.10
2023-03-23T19:59:34.820Z,60.21
2023-03-23T20:02:03.783Z,67.27
2023-03-23T20:04:31.732Z,70.65
2023-03-23T20:07:00.718Z,64.56
2023-03-23T20:09:31.050Z,58.35
2023-03-23T20:11:59.393Z,54.52
2023-03-23T20:14:27.363Z,54.85
2023-03-23T20:16:55.672Z,58.05
2023-03-23T20:19:23.658Z,61.91
2023-03-23T20:21:52.259Z,69.39
2023-03-23T20:24:20.219Z,65.71
2023-03-23T20:26:47.917Z,61.57
2023-03-23T20:29:15.766Z,56.44
2023-03-23T20:31:46.825Z,53.94
2023-03-23T20:34:28.927Z,55.91
2023-03-23T20:36:59.441Z,57.71
2023-03-23T20:39:30.870Z,59.68
2023-03-23T20:42:03.712Z,60.03
2023-03-23T20:44:37.223Z,67.23
2023-03-23T20:47:07.936Z,69.97
2023-03-23T20:49:38.651Z,65.78
2023-03-23T20:52:09.032Z,61.56
2023-03-23T20:54:38.153Z,55.07
2023-03-23T20:57:08.232Z,54.58
2023-03-23T20:59:36.220Z,56.10
2023-03-23T21:02:05.572Z,57.49
2023-03-23T21:04:34.341Z,60.96
2023-03-23T21:07:02.788Z,67.09
2023-03-23T21:09:32.773Z,72.51
2023-03-23T21:12:01.036Z,64.51
2023-03-23T21:14:28.908Z,61.21
2023-03-23T21:17:01.376Z,55.27
2023-03-23T21:19:31.837Z,53.86
2023-03-23T21:22:00.728Z,56.13
2023-03-23T21:24:31.344Z,58.82
2023-03-23T21:27:02.909Z,61.16
2023-03-23T21:29:31.106Z,68.46
2023-03-23T21:34:30.694Z,65.50
2023-03-23T21:36:59.025Z,57.72
2023-03-23T21:39:28.617Z,54.47
2023-03-23T21:41:59.657Z,54.62
2023-03-23T21:44:28.202Z,59.21
2023-03-23T21:46:56.090Z,60.65
2023-03-23T21:49:27.005Z,62.29
2023-03-23T21:51:54.873Z,72.45
2023-03-23T21:54:22.888Z,69.50
2023-03-23T21:56:51.179Z,63.61
2023-03-23T21:59:20.938Z,59.13
2023-03-23T22:01:48.916Z,55.80
2023-03-23T22:04:17.688Z,58.44
2023-03-23T22:06:45.849Z,63.95
2023-03-23T22:09:13.944Z,68.05
2023-03-23T22:11:42.223Z,64.40
2023-03-23T22:14:10.037Z,61.00
2023-03-23T22:16:38.432Z,57.19
2023-03-23T22:19:07.146Z,60.65
2023-03-23T22:21:36.695Z,66.56
2023-03-23T22:24:04.938Z,64.46
2023-03-23T22:26:34.604Z,59.16
2023-03-23T22:29:03.790Z,53.15
2023-03-23T22:31:35.298Z,53.11
2023-03-23T22:34:03.664Z,55.68
2023-03-23T22:36:33.381Z,57.44
2023-03-23T22:39:04.285Z,60.31
2023-03-23T22:41:37.208Z,68.19
2023-03-23T22:44:12.876Z,67.89
2023-03-23T22:46:41.586Z,64.58
2023-03-23T22:49:09.922Z,61.63
2023-03-23T22:51:38.588Z,60.74
2023-03-23T22:54:07.661Z,55.42
2023-03-23T22:56:37.382Z,54.41
2023-03-23T22:59:06.865Z,55.50
2023-03-23T23:01:36.160Z,59.73
2023-03-23T23:04:05.376Z,62.65
2023-03-23T23:06:34.522Z,70.58
2023-03-23T23:09:04.029Z,65.44
2023-03-23T23:11:32.362Z,60.75
2023-03-23T23:14:00.317Z,55.97
2023-03-23T23:16:28.814Z,56.01
2023-03-23T23:18:57.111Z,59.15
2023-03-23T23:21:26.884Z,64.33
2023-03-23T23:23:55.114Z,68.72
2023-03-23T23:26:23.025Z,63.54
2023-03-23T23:28:52.514Z,57.51
2023-03-23T23:31:29.383Z,53.78
2023-03-23T23:34:00.224Z,56.44
2023-03-23T23:36:30.598Z,56.94
2023-03-23T23:39:05.894Z,59.02
2023-03-23T23:41:35.769Z,59.66
2023-03-23T23:44:04.954Z,60.96
2023-03-23T23:46:33.512Z,68.57
2023-03-23T23:49:01.553Z,69.64
2023-03-23T23:51:30.142Z,64.14
2023-03-23T23:53:59.260Z,59.83
2023-03-23T23:56:28.699Z,54.62
2023-03-23T23:58:58.217Z,54.88
